Terminal Aerodrome Forecast
Issued by NWS

Home | Current Version | Previous Version | Text Only | Print | Product List | Glossary On
Versions: 1 2 3 4 5 6 7 8 9 10 11 12
666
FTUS44 KLZK 031736
TAFBPK
TAF
KBPK 031736Z 0318/0418 13007KT P6SM SCT050 OVC120
      TEMPO 0318/0321 -RA SCT030 OVC050
     FM032100 12008KT 6SM -RA BR BKN030
      TEMPO 0321/0324 3SM -RA BR OVC015
     FM040000 12006KT 4SM -RA BR BKN015
     FM040600 12005KT 2SM -RA BR OVC007
     FM041000 12003KT 1SM -RA BR OVC004=

USA.gov is the U.S. government's official web portal to all federal, state and local government web resources and services.